sensor_id;sensor_type;location;lat;lon;timestamp;temperature;humidity
56374;DHT22;58212;47.034;7.376;2022-08-02T00:00:20;20.30;99.90
56374;DHT22;58212;47.034;7.376;2022-08-02T00:02:47;20.40;99.90
56374;DHT22;58212;47.034;7.376;2022-08-02T00:05:14;20.40;99.90
56374;DHT22;58212;47.034;7.376;2022-08-02T00:07:43;20.50;99.90
56374;DHT22;58212;47.034;7.376;2022-08-02T00:10:10;20.60;99.90
56374;DHT22;58212;47.034;7.376;2022-08-02T00:12:38;20.50;99.90
56374;DHT22;58212;47.034;7.376;2022-08-02T00:15:08;20.70;99.90
56374;DHT22;58212;47.034;7.376;2022-08-02T00:17:36;20.60;99.90
56374;DHT22;58212;47.034;7.376;2022-08-02T00:20:03;20.50;99.90
56374;DHT22;58212;47.034;7.376;2022-08-02T00:22:31;20.60;99.90
56374;DHT22;58212;47.034;7.376;2022-08-02T00:24:59;20.60;99.90
56374;DHT22;58212;47.034;7.376;2022-08-02T00:27:26;20.60;99.90
56374;DHT22;58212;47.034;7.376;2022-08-02T00:29:53;20.50;99.90
56374;DHT22;58212;47.034;7.376;2022-08-02T00:32:20;20.40;99.90
56374;DHT22;58212;47.034;7.376;2022-08-02T00:34:48;20.40;99.90
56374;DHT22;58212;47.034;7.376;2022-08-02T00:37:15;20.50;99.90
56374;DHT22;58212;47.034;7.376;2022-08-02T00:39:42;20.50;99.90
56374;DHT22;58212;47.034;7.376;2022-08-02T00:42:13;20.50;99.90
56374;DHT22;58212;47.034;7.376;2022-08-02T00:44:40;20.50;99.90
56374;DHT22;58212;47.034;7.376;2022-08-02T00:47:08;20.50;99.90
56374;DHT22;58212;47.034;7.376;2022-08-02T00:49:35;20.40;99.90
56374;DHT22;58212;47.034;7.376;2022-08-02T00:52:04;20.40;99.90
56374;DHT22;58212;47.034;7.376;2022-08-02T00:54:35;20.30;99.90
56374;DHT22;58212;47.034;7.376;2022-08-02T00:57:03;20.30;99.90
56374;DHT22;58212;47.034;7.376;2022-08-02T00:59:31;20.30;99.90
56374;DHT22;58212;47.034;7.376;2022-08-02T01:01:58;20.20;99.90
56374;DHT22;58212;47.034;7.376;2022-08-02T01:04:26;20.30;99.90
56374;DHT22;58212;47.034;7.376;2022-08-02T01:06:53;20.20;99.90
56374;DHT22;58212;47.034;7.376;2022-08-02T01:09:20;20.00;99.90
56374;DHT22;58212;47.034;7.376;2022-08-02T01:11:47;20.00;99.90
56374;DHT22;58212;47.034;7.376;2022-08-02T01:14:15;20.00;99.90
56374;DHT22;58212;47.034;7.376;2022-08-02T01:16:47;19.90;99.90
56374;DHT22;58212;47.034;7.376;2022-08-02T01:19:26;20.00;99.90
56374;DHT22;58212;47.034;7.376;2022-08-02T01:22:18;19.90;99.90
56374;DHT22;58212;47.034;7.376;2022-08-02T01:25:02;19.90;99.90
56374;DHT22;58212;47.034;7.376;2022-08-02T01:27:42;19.80;99.90
56374;DHT22;58212;47.034;7.376;2022-08-02T01:30:15;19.70;99.90
56374;DHT22;58212;47.034;7.376;2022-08-02T01:32:48;19.70;99.90
56374;DHT22;58212;47.034;7.376;2022-08-02T01:35:21;19.70;99.90
56374;DHT22;58212;47.034;7.376;2022-08-02T01:37:52;19.70;99.90
56374;DHT22;58212;47.034;7.376;2022-08-02T01:40:22;19.50;99.90
56374;DHT22;58212;47.034;7.376;2022-08-02T01:42:52;19.60;99.90
56374;DHT22;58212;47.034;7.376;2022-08-02T01:45:27;19.50;99.90
56374;DHT22;58212;47.034;7.376;2022-08-02T01:47:59;19.60;99.90
56374;DHT22;58212;47.034;7.376;2022-08-02T01:50:29;19.70;99.90
56374;DHT22;58212;47.034;7.376;2022-08-02T01:53:00;19.90;99.90
56374;DHT22;58212;47.034;7.376;2022-08-02T01:55:31;19.60;99.90
56374;DHT22;58212;47.034;7.376;2022-08-02T01:58:04;19.70;99.90
56374;DHT22;58212;47.034;7.376;2022-08-02T02:00:35;19.70;99.90
56374;DHT22;58212;47.034;7.376;2022-08-02T02:03:09;19.70;99.90
56374;DHT22;58212;47.034;7.376;2022-08-02T02:05:38;19.50;99.90
56374;DHT22;58212;47.034;7.376;2022-08-02T02:08:08;19.50;99.90
56374;DHT22;58212;47.034;7.376;2022-08-02T02:10:37;19.40;99.90
56374;DHT22;58212;47.034;7.376;2022-08-02T02:13:07;19.60;99.90
56374;DHT22;58212;47.034;7.376;2022-08-02T02:15:40;19.40;99.90
56374;DHT22;58212;47.034;7.376;2022-08-02T02:18:11;19.40;99.90
56374;DHT22;58212;47.034;7.376;2022-08-02T02:20:41;19.30;99.90
56374;DHT22;58212;47.034;7.376;2022-08-02T02:23:12;19.40;99.90
56374;DHT22;58212;47.034;7.376;2022-08-02T02:25:40;19.60;99.90
56374;DHT22;58212;47.034;7.376;2022-08-02T02:28:11;19.40;99.90
56374;DHT22;58212;47.034;7.376;2022-08-02T02:30:56;19.30;99.90
56374;DHT22;58212;47.034;7.376;2022-08-02T02:33:25;19.20;99.90
56374;DHT22;58212;47.034;7.376;2022-08-02T02:35:54;19.00;99.90
56374;DHT22;58212;47.034;7.376;2022-08-02T02:38:22;19.00;99.90
56374;DHT22;58212;47.034;7.376;2022-08-02T02:40:55;19.00;99.90
56374;DHT22;58212;47.034;7.376;2022-08-02T02:43:24;18.90;99.90
56374;DHT22;58212;47.034;7.376;2022-08-02T02:45:54;18.90;99.90
56374;DHT22;58212;47.034;7.376;2022-08-02T02:48:22;19.00;99.90
56374;DHT22;58212;47.034;7.376;2022-08-02T02:50:51;19.00;99.90
56374;DHT22;58212;47.034;7.376;2022-08-02T02:53:21;18.90;99.90
56374;DHT22;58212;47.034;7.376;2022-08-02T02:55:50;19.20;99.90
56374;DHT22;58212;47.034;7.376;2022-08-02T02:58:17;19.20;99.90
56374;DHT22;58212;47.034;7.376;2022-08-02T03:00:44;19.00;99.90
56374;DHT22;58212;47.034;7.376;2022-08-02T03:03:31;19.00;99.90
56374;DHT22;58212;47.034;7.376;2022-08-02T03:05:58;18.80;99.90
56374;DHT22;58212;47.034;7.376;2022-08-02T03:08:25;18.70;99.90
56374;DHT22;58212;47.034;7.376;2022-08-02T03:10:52;18.80;99.90
56374;DHT22;58212;47.034;7.376;2022-08-02T03:13:20;18.70;99.90
56374;DHT22;58212;47.034;7.376;2022-08-02T03:15:47;18.70;99.90
56374;DHT22;58212;47.034;7.376;2022-08-02T03:18:33;18.80;99.90
56374;DHT22;58212;47.034;7.376;2022-08-02T03:21:01;18.70;99.90
56374;DHT22;58212;47.034;7.376;2022-08-02T03:23:28;18.70;99.90
56374;DHT22;58212;47.034;7.376;2022-08-02T03:25:56;18.60;99.90
56374;DHT22;58212;47.034;7.376;2022-08-02T03:28:23;18.50;99.90
56374;DHT22;58212;47.034;7.376;2022-08-02T03:30:52;18.40;99.90
56374;DHT22;58212;47.034;7.376;2022-08-02T03:33:23;18.40;99.90
56374;DHT22;58212;47.034;7.376;2022-08-02T03:35:55;18.40;99.90
56374;DHT22;58212;47.034;7.376;2022-08-02T03:38:23;18.40;99.90
56374;DHT22;58212;47.034;7.376;2022-08-02T03:40:51;18.40;99.90
56374;DHT22;58212;47.034;7.376;2022-08-02T03:43:19;18.40;99.90
56374;DHT22;58212;47.034;7.376;2022-08-02T03:45:48;18.60;99.90
56374;DHT22;58212;47.034;7.376;2022-08-02T03:48:16;18.70;99.90
56374;DHT22;58212;47.034;7.376;2022-08-02T03:50:45;18.50;99.90
56374;DHT22;58212;47.034;7.376;2022-08-02T03:53:15;18.40;99.90
56374;DHT22;58212;47.034;7.376;2022-08-02T03:55:43;18.30;99.90
56374;DHT22;58212;47.034;7.376;2022-08-02T03:58:16;18.50;99.90
56374;DHT22;58212;47.034;7.376;2022-08-02T04:00:43;18.50;99.90
56374;DHT22;58212;47.034;7.376;2022-08-02T04:03:10;18.40;99.90
56374;DHT22;58212;47.034;7.376;2022-08-02T04:05:38;18.60;99.90
56374;DHT22;58212;47.034;7.376;2022-08-02T04:08:05;18.80;99.90
56374;DHT22;58212;47.034;7.376;2022-08-02T04:10:35;18.70;99.90
56374;DHT22;58212;47.034;7.376;2022-08-02T04:13:16;18.70;99.90
56374;DHT22;58212;47.034;7.376;2022-08-02T04:15:43;18.70;99.90
56374;DHT22;58212;47.034;7.376;2022-08-02T04:18:11;18.60;99.90
56374;DHT22;58212;47.034;7.376;2022-08-02T04:20:39;18.70;99.90
56374;DHT22;58212;47.034;7.376;2022-08-02T04:23:09;18.70;99.90
56374;DHT22;58212;47.034;7.376;2022-08-02T04:25:39;18.60;99.90
56374;DHT22;58212;47.034;7.376;2022-08-02T04:28:07;18.70;99.90
56374;DHT22;58212;47.034;7.376;2022-08-02T04:30:35;18.70;99.90
56374;DHT22;58212;47.034;7.376;2022-08-02T04:33:03;18.70;99.90
56374;DHT22;58212;47.034;7.376;2022-08-02T04:35:32;18.70;99.90
56374;DHT22;58212;47.034;7.376;2022-08-02T04:37:59;18.70;99.90
56374;DHT22;58212;47.034;7.376;2022-08-02T04:40:27;18.70;99.90
56374;DHT22;58212;47.034;7.376;2022-08-02T04:42:55;18.80;99.90
56374;DHT22;58212;47.034;7.376;2022-08-02T04:45:22;18.80;99.90
56374;DHT22;58212;47.034;7.376;2022-08-02T04:47:50;18.80;99.90
56374;DHT22;58212;47.034;7.376;2022-08-02T04:50:17;18.90;99.90
56374;DHT22;58212;47.034;7.376;2022-08-02T04:52:45;19.00;99.90
56374;DHT22;58212;47.034;7.376;2022-08-02T04:55:12;19.10;99.90
56374;DHT22;58212;47.034;7.376;2022-08-02T04:57:41;19.20;99.90
56374;DHT22;58212;47.034;7.376;2022-08-02T05:00:22;19.30;99.90
56374;DHT22;58212;47.034;7.376;2022-08-02T05:02:51;19.40;99.90
56374;DHT22;58212;47.034;7.376;2022-08-02T05:05:19;19.30;99.90
56374;DHT22;58212;47.034;7.376;2022-08-02T05:07:46;19.20;99.90
56374;DHT22;58212;47.034;7.376;2022-08-02T05:10:14;19.30;99.90
56374;DHT22;58212;47.034;7.376;2022-08-02T05:12:41;19.30;99.90
56374;DHT22;58212;47.034;7.376;2022-08-02T05:15:10;19.60;99.90
56374;DHT22;58212;47.034;7.376;2022-08-02T05:17:47;20.40;99.90
56374;DHT22;58212;47.034;7.376;2022-08-02T05:20:15;21.40;99.90
56374;DHT22;58212;47.034;7.376;2022-08-02T05:22:42;22.20;99.90
56374;DHT22;58212;47.034;7.376;2022-08-02T05:25:10;22.40;99.90
56374;DHT22;58212;47.034;7.376;2022-08-02T05:27:37;22.70;99.90
56374;DHT22;58212;47.034;7.376;2022-08-02T05:30:06;22.80;99.90
56374;DHT22;58212;47.034;7.376;2022-08-02T05:32:44;23.00;99.90
56374;DHT22;58212;47.034;7.376;2022-08-02T05:35:11;23.50;99.90
56374;DHT22;58212;47.034;7.376;2022-08-02T05:37:38;23.60;99.90
56374;DHT22;58212;47.034;7.376;2022-08-02T05:40:06;23.70;99.90
56374;DHT22;58212;47.034;7.376;2022-08-02T05:42:33;23.20;99.90
56374;DHT22;58212;47.034;7.376;2022-08-02T05:45:00;23.00;99.90
56374;DHT22;58212;47.034;7.376;2022-08-02T05:47:27;22.70;99.90
56374;DHT22;58212;47.034;7.376;2022-08-02T05:49:56;22.50;99.90
56374;DHT22;58212;47.034;7.376;2022-08-02T05:52:24;22.60;99.90
56374;DHT22;58212;47.034;7.376;2022-08-02T05:55:04;24.00;99.90
56374;DHT22;58212;47.034;7.376;2022-08-02T05:57:38;24.90;99.90
56374;DHT22;58212;47.034;7.376;2022-08-02T06:00:09;25.90;99.90
56374;DHT22;58212;47.034;7.376;2022-08-02T06:02:58;26.10;99.90
56374;DHT22;58212;47.034;7.376;2022-08-02T06:05:32;26.40;99.90
56374;DHT22;58212;47.034;7.376;2022-08-02T06:07:59;26.80;99.90
56374;DHT22;58212;47.034;7.376;2022-08-02T06:10:28;27.50;99.90
56374;DHT22;58212;47.034;7.376;2022-08-02T06:13:04;26.20;99.90
56374;DHT22;58212;47.034;7.376;2022-08-02T06:15:33;25.50;99.90
56374;DHT22;58212;47.034;7.376;2022-08-02T06:18:01;25.60;99.90
56374;DHT22;58212;47.034;7.376;2022-08-02T06:20:30;25.60;99.90
56374;DHT22;58212;47.034;7.376;2022-08-02T06:23:01;26.70;99.90
56374;DHT22;58212;47.034;7.376;2022-08-02T06:25:30;25.10;99.90
56374;DHT22;58212;47.034;7.376;2022-08-02T06:27:58;24.20;99.90
56374;DHT22;58212;47.034;7.376;2022-08-02T06:30:26;23.90;99.90
56374;DHT22;58212;47.034;7.376;2022-08-02T06:32:53;24.30;99.90
56374;DHT22;58212;47.034;7.376;2022-08-02T06:35:20;23.70;99.90
56374;DHT22;58212;47.034;7.376;2022-08-02T06:37:52;24.00;99.90
56374;DHT22;58212;47.034;7.376;2022-08-02T06:40:26;23.40;99.90
56374;DHT22;58212;47.034;7.376;2022-08-02T06:43:09;23.40;99.90
56374;DHT22;58212;47.034;7.376;2022-08-02T06:45:38;23.20;99.90
56374;DHT22;58212;47.034;7.376;2022-08-02T06:48:05;23.00;99.90
56374;DHT22;58212;47.034;7.376;2022-08-02T06:50:33;22.90;99.90
56374;DHT22;58212;47.034;7.376;2022-08-02T06:53:04;23.40;99.90
56374;DHT22;58212;47.034;7.376;2022-08-02T06:55:32;23.30;99.90
56374;DHT22;58212;47.034;7.376;2022-08-02T06:57:59;22.80;99.90
56374;DHT22;58212;47.034;7.376;2022-08-02T07:00:26;22.60;99.90
56374;DHT22;58212;47.034;7.376;2022-08-02T07:02:54;23.20;99.90
56374;DHT22;58212;47.034;7.376;2022-08-02T07:05:21;23.70;99.90
56374;DHT22;58212;47.034;7.376;2022-08-02T07:07:49;23.70;99.90
56374;DHT22;58212;47.034;7.376;2022-08-02T07:10:17;23.80;99.90
56374;DHT22;58212;47.034;7.376;2022-08-02T07:12:44;24.20;99.90
56374;DHT22;58212;47.034;7.376;2022-08-02T07:15:11;24.20;99.90
56374;DHT22;58212;47.034;7.376;2022-08-02T07:17:39;24.30;99.90
56374;DHT22;58212;47.034;7.376;2022-08-02T07:20:07;23.50;99.90
56374;DHT22;58212;47.034;7.376;2022-08-02T07:22:35;24.10;99.90
56374;DHT22;58212;47.034;7.376;2022-08-02T07:25:03;24.20;99.90
56374;DHT22;58212;47.034;7.376;2022-08-02T07:27:32;23.60;99.90
56374;DHT22;58212;47.034;7.376;2022-08-02T07:29:59;23.90;99.90
56374;DHT22;58212;47.034;7.376;2022-08-02T07:32:28;23.80;99.90
56374;DHT22;58212;47.034;7.376;2022-08-02T07:34:57;24.00;99.90
56374;DHT22;58212;47.034;7.376;2022-08-02T07:37:29;24.50;99.90
56374;DHT22;58212;47.034;7.376;2022-08-02T07:39:56;24.00;99.90
56374;DHT22;58212;47.034;7.376;2022-08-02T07:42:24;24.20;99.90
56374;DHT22;58212;47.034;7.376;2022-08-02T07:44:53;24.30;99.90
56374;DHT22;58212;47.034;7.376;2022-08-02T07:47:20;24.30;99.90
56374;DHT22;58212;47.034;7.376;2022-08-02T07:49:47;25.10;99.90
56374;DHT22;58212;47.034;7.376;2022-08-02T07:52:14;24.80;99.90
56374;DHT22;58212;47.034;7.376;2022-08-02T07:54:45;24.50;99.90
56374;DHT22;58212;47.034;7.376;2022-08-02T07:57:12;24.70;99.90
56374;DHT22;58212;47.034;7.376;2022-08-02T07:59:41;25.00;99.90
56374;DHT22;58212;47.034;7.376;2022-08-02T08:02:11;25.10;99.90
56374;DHT22;58212;47.034;7.376;2022-08-02T08:04:39;25.70;99.90
56374;DHT22;58212;47.034;7.376;2022-08-02T08:07:06;25.20;99.90
56374;DHT22;58212;47.034;7.376;2022-08-02T08:09:35;25.50;99.90
56374;DHT22;58212;47.034;7.376;2022-08-02T08:12:05;24.90;99.90
56374;DHT22;58212;47.034;7.376;2022-08-02T08:14:34;25.20;99.90
56374;DHT22;58212;47.034;7.376;2022-08-02T08:17:01;25.60;99.90
56374;DHT22;58212;47.034;7.376;2022-08-02T08:19:30;25.50;99.90
56374;DHT22;58212;47.034;7.376;2022-08-02T08:21:57;25.40;99.90
56374;DHT22;58212;47.034;7.376;2022-08-02T08:24:25;25.40;99.90
56374;DHT22;58212;47.034;7.376;2022-08-02T08:26:52;25.30;99.90
56374;DHT22;58212;47.034;7.376;2022-08-02T08:29:20;25.40;99.90
56374;DHT22;58212;47.034;7.376;2022-08-02T08:31:47;25.90;99.90
56374;DHT22;58212;47.034;7.376;2022-08-02T08:34:16;25.50;99.90
56374;DHT22;58212;47.034;7.376;2022-08-02T08:36:45;25.30;99.90
56374;DHT22;58212;47.034;7.376;2022-08-02T08:39:12;25.40;99.90
56374;DHT22;58212;47.034;7.376;2022-08-02T08:41:41;25.70;99.90
56374;DHT22;58212;47.034;7.376;2022-08-02T08:44:08;25.60;99.90
56374;DHT22;58212;47.034;7.376;2022-08-02T08:46:36;25.50;99.90
56374;DHT22;58212;47.034;7.376;2022-08-02T08:49:08;25.70;99.90
56374;DHT22;58212;47.034;7.376;2022-08-02T08:51:37;26.30;99.90
56374;DHT22;58212;47.034;7.376;2022-08-02T08:54:07;26.10;99.90
56374;DHT22;58212;47.034;7.376;2022-08-02T08:56:35;26.40;99.90
56374;DHT22;58212;47.034;7.376;2022-08-02T08:59:03;26.20;99.90
56374;DHT22;58212;47.034;7.376;2022-08-02T09:01:33;26.10;99.90
56374;DHT22;58212;47.034;7.376;2022-08-02T09:04:00;26.30;99.90
56374;DHT22;58212;47.034;7.376;2022-08-02T09:06:28;26.20;99.90
56374;DHT22;58212;47.034;7.376;2022-08-02T09:08:55;26.00;99.90
56374;DHT22;58212;47.034;7.376;2022-08-02T09:11:24;26.60;99.90
56374;DHT22;58212;47.034;7.376;2022-08-02T09:13:53;26.60;99.90
56374;DHT22;58212;47.034;7.376;2022-08-02T09:16:28;26.50;99.90
56374;DHT22;58212;47.034;7.376;2022-08-02T09:18:56;26.40;99.90
56374;DHT22;58212;47.034;7.376;2022-08-02T09:21:24;26.90;99.90
56374;DHT22;58212;47.034;7.376;2022-08-02T09:23:59;27.50;99.90
56374;DHT22;58212;47.034;7.376;2022-08-02T09:26:28;26.90;99.90
56374;DHT22;58212;47.034;7.376;2022-08-02T09:29:00;27.00;99.90
56374;DHT22;58212;47.034;7.376;2022-08-02T09:31:31;26.60;99.90
56374;DHT22;58212;47.034;7.376;2022-08-02T09:34:00;26.50;99.90
56374;DHT22;58212;47.034;7.376;2022-08-02T09:36:46;26.80;99.90
56374;DHT22;58212;47.034;7.376;2022-08-02T09:39:14;27.50;99.90
56374;DHT22;58212;47.034;7.376;2022-08-02T09:41:44;27.40;99.90
56374;DHT22;58212;47.034;7.376;2022-08-02T09:44:12;27.00;99.90
56374;DHT22;58212;47.034;7.376;2022-08-02T09:46:41;27.20;99.90
56374;DHT22;58212;47.034;7.376;2022-08-02T09:49:09;27.00;99.90
56374;DHT22;58212;47.034;7.376;2022-08-02T09:51:38;27.50;99.90
56374;DHT22;58212;47.034;7.376;2022-08-02T09:54:07;27.40;99.90
56374;DHT22;58212;47.034;7.376;2022-08-02T09:56:46;27.30;99.90
56374;DHT22;58212;47.034;7.376;2022-08-02T09:59:15;27.60;99.90
56374;DHT22;58212;47.034;7.376;2022-08-02T10:01:44;27.80;99.90
56374;DHT22;58212;47.034;7.376;2022-08-02T10:04:13;27.20;99.90
56374;DHT22;58212;47.034;7.376;2022-08-02T10:06:41;27.60;99.90
56374;DHT22;58212;47.034;7.376;2022-08-02T10:09:10;27.60;99.90
56374;DHT22;58212;47.034;7.376;2022-08-02T10:11:38;27.70;99.90
56374;DHT22;58212;47.034;7.376;2022-08-02T10:14:10;27.90;99.90
56374;DHT22;58212;47.034;7.376;2022-08-02T10:16:38;27.60;99.90
56374;DHT22;58212;47.034;7.376;2022-08-02T10:19:06;27.40;99.90
56374;DHT22;58212;47.034;7.376;2022-08-02T10:21:42;27.90;99.90
56374;DHT22;58212;47.034;7.376;2022-08-02T10:24:12;27.70;99.90
56374;DHT22;58212;47.034;7.376;2022-08-02T10:26:42;27.60;99.90
56374;DHT22;58212;47.034;7.376;2022-08-02T10:29:15;27.80;99.90
56374;DHT22;58212;47.034;7.376;2022-08-02T10:31:48;27.80;99.90
56374;DHT22;58212;47.034;7.376;2022-08-02T10:34:19;27.80;99.90
56374;DHT22;58212;47.034;7.376;2022-08-02T10:36:47;28.10;99.90
56374;DHT22;58212;47.034;7.376;2022-08-02T10:39:15;28.20;99.90
56374;DHT22;58212;47.034;7.376;2022-08-02T10:41:44;28.10;99.90
56374;DHT22;58212;47.034;7.376;2022-08-02T10:44:25;28.10;99.90
56374;DHT22;58212;47.034;7.376;2022-08-02T10:47:20;28.20;99.90
56374;DHT22;58212;47.034;7.376;2022-08-02T10:49:48;28.20;99.90
56374;DHT22;58212;47.034;7.376;2022-08-02T10:52:16;28.70;99.90
56374;DHT22;58212;47.034;7.376;2022-08-02T10:54:51;28.90;99.90
56374;DHT22;58212;47.034;7.376;2022-08-02T10:57:21;28.90;99.90
56374;DHT22;58212;47.034;7.376;2022-08-02T10:59:51;28.70;99.90
56374;DHT22;58212;47.034;7.376;2022-08-02T11:02:40;28.70;99.90
56374;DHT22;58212;47.034;7.376;2022-08-02T11:05:11;28.90;99.90
56374;DHT22;58212;47.034;7.376;2022-08-02T11:07:40;28.50;99.90
56374;DHT22;58212;47.034;7.376;2022-08-02T11:10:27;28.90;99.90
56374;DHT22;58212;47.034;7.376;2022-08-02T11:13:06;28.80;99.90
56374;DHT22;58212;47.034;7.376;2022-08-02T11:15:58;29.00;99.90
56374;DHT22;58212;47.034;7.376;2022-08-02T11:19:01;29.00;99.90
56374;DHT22;58212;47.034;7.376;2022-08-02T11:21:30;28.70;99.90
56374;DHT22;58212;47.034;7.376;2022-08-02T11:24:28;28.90;99.90
56374;DHT22;58212;47.034;7.376;2022-08-02T11:26:56;29.00;99.90
56374;DHT22;58212;47.034;7.376;2022-08-02T11:29:38;29.10;99.90
56374;DHT22;58212;47.034;7.376;2022-08-02T11:32:07;29.50;99.90
56374;DHT22;58212;47.034;7.376;2022-08-02T11:34:34;29.70;99.90
56374;DHT22;58212;47.034;7.376;2022-08-02T11:37:02;29.80;99.90
56374;DHT22;58212;47.034;7.376;2022-08-02T11:39:29;29.40;99.90
56374;DHT22;58212;47.034;7.376;2022-08-02T11:41:58;29.30;99.90
56374;DHT22;58212;47.034;7.376;2022-08-02T11:44:28;29.50;99.90
56374;DHT22;58212;47.034;7.376;2022-08-02T11:46:56;29.40;99.90
56374;DHT22;58212;47.034;7.376;2022-08-02T11:49:26;29.40;99.90
56374;DHT22;58212;47.034;7.376;2022-08-02T11:51:55;29.50;99.90
56374;DHT22;58212;47.034;7.376;2022-08-02T11:54:27;29.50;99.90
56374;DHT22;58212;47.034;7.376;2022-08-02T11:56:54;29.60;99.90
56374;DHT22;58212;47.034;7.376;2022-08-02T11:59:36;29.10;99.90
56374;DHT22;58212;47.034;7.376;2022-08-02T12:02:04;29.40;99.90
56374;DHT22;58212;47.034;7.376;2022-08-02T12:04:33;29.40;99.90
56374;DHT22;58212;47.034;7.376;2022-08-02T12:07:02;29.70;99.90
56374;DHT22;58212;47.034;7.376;2022-08-02T12:09:31;29.60;95.70
56374;DHT22;58212;47.034;7.376;2022-08-02T12:11:59;29.80;97.90
56374;DHT22;58212;47.034;7.376;2022-08-02T12:14:29;29.90;98.90
56374;DHT22;58212;47.034;7.376;2022-08-02T12:16:56;29.90;98.30
56374;DHT22;58212;47.034;7.376;2022-08-02T12:19:43;30.10;98.20
56374;DHT22;58212;47.034;7.376;2022-08-02T12:22:13;30.10;99.00
56374;DHT22;58212;47.034;7.376;2022-08-02T12:24:43;30.00;97.00
56374;DHT22;58212;47.034;7.376;2022-08-02T12:27:29;30.20;98.50
56374;DHT22;58212;47.034;7.376;2022-08-02T12:30:02;29.90;97.60
56374;DHT22;58212;47.034;7.376;2022-08-02T12:32:30;30.30;97.10
56374;DHT22;58212;47.034;7.376;2022-08-02T12:35:04;30.30;97.30
56374;DHT22;58212;47.034;7.376;2022-08-02T12:37:35;30.10;98.60
56374;DHT22;58212;47.034;7.376;2022-08-02T12:40:23;30.20;98.60
56374;DHT22;58212;47.034;7.376;2022-08-02T12:42:53;30.00;96.90
56374;DHT22;58212;47.034;7.376;2022-08-02T12:45:24;29.80;97.00
56374;DHT22;58212;47.034;7.376;2022-08-02T12:47:53;29.90;98.20
56374;DHT22;58212;47.034;7.376;2022-08-02T12:50:24;29.90;97.00
56374;DHT22;58212;47.034;7.376;2022-08-02T12:53:03;30.00;97.00
56374;DHT22;58212;47.034;7.376;2022-08-02T12:55:30;29.90;97.30
56374;DHT22;58212;47.034;7.376;2022-08-02T12:57:59;29.80;97.30
56374;DHT22;58212;47.034;7.376;2022-08-02T13:00:28;29.40;96.50
56374;DHT22;58212;47.034;7.376;2022-08-02T13:02:56;29.70;97.10
56374;DHT22;58212;47.034;7.376;2022-08-02T13:05:25;30.20;97.10
56374;DHT22;58212;47.034;7.376;2022-08-02T13:07:54;30.30;98.20
56374;DHT22;58212;47.034;7.376;2022-08-02T13:10:21;30.00;96.30
56374;DHT22;58212;47.034;7.376;2022-08-02T13:12:49;29.90;96.60
56374;DHT22;58212;47.034;7.376;2022-08-02T13:15:17;29.80;96.30
56374;DHT22;58212;47.034;7.376;2022-08-02T13:17:44;30.10;96.40
56374;DHT22;58212;47.034;7.376;2022-08-02T13:20:12;29.80;97.00
56374;DHT22;58212;47.034;7.376;2022-08-02T13:22:41;29.80;97.10
56374;DHT22;58212;47.034;7.376;2022-08-02T13:25:08;29.80;95.60
56374;DHT22;58212;47.034;7.376;2022-08-02T13:27:38;29.90;96.50
56374;DHT22;58212;47.034;7.376;2022-08-02T13:30:06;30.30;95.00
56374;DHT22;58212;47.034;7.376;2022-08-02T13:32:33;30.50;94.40
56374;DHT22;58212;47.034;7.376;2022-08-02T13:35:01;30.60;93.50
56374;DHT22;58212;47.034;7.376;2022-08-02T13:37:28;30.50;93.80
56374;DHT22;58212;47.034;7.376;2022-08-02T13:39:56;30.60;94.80
56374;DHT22;58212;47.034;7.376;2022-08-02T13:42:24;29.90;95.10
56374;DHT22;58212;47.034;7.376;2022-08-02T13:44:51;30.00;96.20
56374;DHT22;58212;47.034;7.376;2022-08-02T13:47:18;30.10;95.30
56374;DHT22;58212;47.034;7.376;2022-08-02T13:49:45;29.90;95.00
56374;DHT22;58212;47.034;7.376;2022-08-02T13:52:12;29.80;94.90
56374;DHT22;58212;47.034;7.376;2022-08-02T13:54:39;29.90;96.60
56374;DHT22;58212;47.034;7.376;2022-08-02T13:57:08;30.00;95.60
56374;DHT22;58212;47.034;7.376;2022-08-02T14:02:59;29.70;96.70
56374;DHT22;58212;47.034;7.376;2022-08-02T14:05:27;29.60;95.70
56374;DHT22;58212;47.034;7.376;2022-08-02T14:07:55;29.90;95.10
56374;DHT22;58212;47.034;7.376;2022-08-02T14:10:23;29.80;93.30
56374;DHT22;58212;47.034;7.376;2022-08-02T14:12:52;29.80;94.10
56374;DHT22;58212;47.034;7.376;2022-08-02T14:15:19;29.90;93.30
56374;DHT22;58212;47.034;7.376;2022-08-02T14:17:47;29.90;94.30
56374;DHT22;58212;47.034;7.376;2022-08-02T14:20:17;30.00;94.60
56374;DHT22;58212;47.034;7.376;2022-08-02T14:22:44;29.90;92.90
56374;DHT22;58212;47.034;7.376;2022-08-02T14:25:12;30.00;94.20
56374;DHT22;58212;47.034;7.376;2022-08-02T14:27:39;29.90;95.40
56374;DHT22;58212;47.034;7.376;2022-08-02T14:30:08;30.00;94.50
56374;DHT22;58212;47.034;7.376;2022-08-02T14:32:36;30.10;94.60
56374;DHT22;58212;47.034;7.376;2022-08-02T14:35:04;29.80;94.50
56374;DHT22;58212;47.034;7.376;2022-08-02T14:37:33;30.00;94.50
56374;DHT22;58212;47.034;7.376;2022-08-02T14:40:01;29.70;94.60
56374;DHT22;58212;47.034;7.376;2022-08-02T14:42:28;29.80;94.10
56374;DHT22;58212;47.034;7.376;2022-08-02T14:44:55;29.80;94.20
56374;DHT22;58212;47.034;7.376;2022-08-02T14:47:24;29.80;95.10
56374;DHT22;58212;47.034;7.376;2022-08-02T14:49:51;29.50;94.70
56374;DHT22;58212;47.034;7.376;2022-08-02T14:52:18;29.40;94.90
56374;DHT22;58212;47.034;7.376;2022-08-02T14:54:46;29.40;93.60
56374;DHT22;58212;47.034;7.376;2022-08-02T14:57:15;29.40;94.90
56374;DHT22;58212;47.034;7.376;2022-08-02T14:59:42;29.20;94.30
56374;DHT22;58212;47.034;7.376;2022-08-02T15:02:10;29.00;94.90
56374;DHT22;58212;47.034;7.376;2022-08-02T15:04:39;29.20;94.30
56374;DHT22;58212;47.034;7.376;2022-08-02T15:07:06;29.50;92.30
56374;DHT22;58212;47.034;7.376;2022-08-02T15:09:33;29.70;92.90
56374;DHT22;58212;47.034;7.376;2022-08-02T15:12:00;29.70;92.90
56374;DHT22;58212;47.034;7.376;2022-08-02T15:14:27;29.90;92.10
56374;DHT22;58212;47.034;7.376;2022-08-02T15:16:54;29.60;93.40
56374;DHT22;58212;47.034;7.376;2022-08-02T15:19:21;29.10;94.60
56374;DHT22;58212;47.034;7.376;2022-08-02T15:21:50;29.20;92.60
56374;DHT22;58212;47.034;7.376;2022-08-02T15:24:17;29.20;93.50
56374;DHT22;58212;47.034;7.376;2022-08-02T15:26:44;29.40;92.20
56374;DHT22;58212;47.034;7.376;2022-08-02T15:29:11;29.50;93.40
56374;DHT22;58212;47.034;7.376;2022-08-02T15:31:39;29.50;93.40
56374;DHT22;58212;47.034;7.376;2022-08-02T15:34:06;29.50;93.10
56374;DHT22;58212;47.034;7.376;2022-08-02T15:36:34;29.60;92.80
56374;DHT22;58212;47.034;7.376;2022-08-02T15:39:03;29.30;92.00
56374;DHT22;58212;47.034;7.376;2022-08-02T15:41:31;29.20;92.80
56374;DHT22;58212;47.034;7.376;2022-08-02T15:43:58;29.10;92.90
56374;DHT22;58212;47.034;7.376;2022-08-02T15:46:26;29.10;92.40
56374;DHT22;58212;47.034;7.376;2022-08-02T15:48:54;29.20;93.00